createdAt,value
2018-03-27T00:00:01.653Z,18.33
2018-03-27T00:02:29.250Z,21.43
2018-03-27T00:04:56.899Z,19.83
2018-03-27T00:07:24.525Z,21.17
2018-03-27T00:09:52.232Z,22.43
2018-03-27T00:12:19.832Z,23.57
2018-03-27T00:14:47.502Z,26.40
2018-03-27T00:17:15.114Z,22.10
2018-03-27T00:19:42.878Z,20.57
2018-03-27T00:22:10.498Z,20.13
2018-03-27T00:24:41.910Z,23.73
2018-03-27T00:27:08.965Z,19.57
2018-03-27T00:29:48.367Z,17.27
2018-03-27T00:32:27.667Z,16.77
2018-03-27T00:35:06.999Z,21.60
2018-03-27T00:37:46.250Z,18.80
2018-03-27T00:40:25.403Z,19.43
2018-03-27T00:42:54.650Z,16.40
2018-03-27T00:45:22.279Z,19.83
2018-03-27T00:47:49.884Z,16.87
2018-03-27T00:50:17.502Z,16.73
2018-03-27T00:52:45.202Z,17.00
2018-03-27T00:55:12.849Z,15.80
2018-03-27T00:57:40.490Z,18.53
2018-03-27T01:00:08.093Z,18.00
2018-03-27T01:02:35.722Z,18.23
2018-03-27T01:05:08.949Z,19.53
2018-03-27T01:07:36.575Z,20.43
2018-03-27T01:10:04.166Z,17.03
2018-03-27T01:12:31.808Z,18.30
2018-03-27T01:14:59.422Z,19.07
2018-03-27T01:17:27.139Z,17.50
2018-03-27T01:19:54.742Z,17.97
2018-03-27T01:22:22.372Z,16.97
2018-03-27T01:24:49.966Z,19.77
2018-03-27T01:27:17.710Z,24.00
2018-03-27T01:29:45.307Z,20.27
2018-03-27T01:32:12.935Z,20.47
2018-03-27T01:34:40.561Z,29.40
2018-03-27T01:37:08.227Z,22.67
2018-03-27T01:39:35.884Z,19.00
2018-03-27T01:42:03.498Z,19.57
2018-03-27T01:44:31.118Z,19.73
2018-03-27T01:46:58.719Z,23.40
2018-03-27T01:49:26.394Z,20.33
2018-03-27T01:51:54.013Z,21.80
2018-03-27T01:54:21.650Z,22.80
2018-03-27T01:56:49.238Z,20.80
2018-03-27T01:59:16.891Z,24.77
2018-03-27T02:01:44.492Z,23.70
2018-03-27T02:04:12.138Z,22.00
2018-03-27T02:06:39.746Z,22.43
2018-03-27T02:09:07.395Z,17.93
2018-03-27T02:11:40.364Z,18.63
2018-03-27T02:14:13.503Z,17.00
2018-03-27T02:16:46.466Z,18.03
2018-03-27T02:19:19.578Z,17.00
2018-03-27T02:21:46.599Z,16.83
2018-03-27T02:24:15.030Z,20.30
2018-03-27T02:26:42.638Z,20.30
2018-03-27T02:29:10.247Z,31.83
2018-03-27T02:31:37.892Z,21.53
2018-03-27T02:34:05.501Z,22.87
2018-03-27T02:36:33.262Z,20.53
2018-03-27T02:39:00.905Z,22.97
2018-03-27T02:41:28.582Z,21.93
2018-03-27T02:43:56.207Z,19.30
2018-03-27T02:46:23.858Z,25.80
2018-03-27T02:48:51.460Z,19.50
2018-03-27T02:51:19.099Z,26.37
2018-03-27T02:53:46.692Z,25.00
2018-03-27T02:56:14.332Z,24.63
2018-03-27T02:58:41.944Z,20.93
2018-03-27T03:01:09.615Z,26.93
2018-03-27T03:03:37.288Z,23.73
2018-03-27T03:06:04.973Z,21.63
2018-03-27T03:08:32.611Z,24.23
2018-03-27T03:11:00.244Z,26.70
2018-03-27T03:13:27.844Z,26.30
2018-03-27T03:15:55.480Z,20.03
2018-03-27T03:18:23.080Z,21.27
2018-03-27T03:20:50.834Z,21.73
2018-03-27T03:23:18.486Z,20.97
2018-03-27T03:25:46.091Z,25.27
2018-03-27T03:28:13.737Z,22.27
2018-03-27T03:30:41.351Z,22.07
2018-03-27T03:33:09.004Z,24.33
2018-03-27T03:35:36.611Z,20.97
2018-03-27T03:38:04.263Z,19.27
2018-03-27T03:40:31.864Z,19.77
2018-03-27T03:42:59.508Z,22.37
2018-03-27T03:45:27.115Z,23.97
2018-03-27T03:47:54.759Z,21.23
2018-03-27T03:50:22.386Z,20.90
2018-03-27T03:52:50.107Z,20.57
2018-03-27T03:55:17.714Z,26.63
2018-03-27T03:57:45.350Z,27.07
2018-03-27T04:00:12.979Z,20.73
2018-03-27T04:02:40.614Z,24.13
2018-03-27T04:05:08.211Z,20.47
2018-03-27T04:07:35.871Z,135.50
2018-03-27T04:10:03.458Z,20.43
2018-03-27T04:12:31.139Z,23.87
2018-03-27T04:14:58.750Z,21.30
2018-03-27T04:17:26.443Z,23.07
2018-03-27T04:19:54.109Z,22.23
2018-03-27T04:22:21.751Z,20.70
2018-03-27T04:24:49.395Z,22.30
2018-03-27T04:27:17.019Z,20.13
2018-03-27T04:29:44.712Z,19.90
2018-03-27T04:32:12.351Z,21.53
2018-03-27T04:34:40.010Z,26.20
2018-03-27T04:37:07.613Z,18.83
2018-03-27T04:39:35.259Z,23.00
2018-03-27T04:42:02.891Z,25.40
2018-03-27T04:44:30.641Z,27.70
2018-03-27T04:46:58.258Z,21.87
2018-03-27T04:49:25.905Z,23.00
2018-03-27T04:51:53.498Z,27.73
2018-03-27T04:54:21.171Z,23.20
2018-03-27T04:56:48.747Z,22.73
2018-03-27T04:59:16.384Z,26.00
2018-03-27T05:01:44.013Z,24.50
2018-03-27T05:04:11.771Z,25.13
2018-03-27T05:06:39.395Z,25.40
2018-03-27T05:09:07.058Z,28.13
2018-03-27T05:11:34.736Z,26.47
2018-03-27T05:14:02.358Z,24.10
2018-03-27T05:16:29.997Z,25.90
2018-03-27T05:18:57.693Z,22.07
2018-03-27T05:21:25.419Z,26.87
2018-03-27T05:23:53.098Z,29.98
2018-03-27T05:26:20.727Z,24.27
2018-03-27T05:28:48.459Z,29.85
2018-03-27T05:31:16.122Z,28.37
2018-03-27T05:33:43.735Z,24.00
2018-03-27T05:36:11.392Z,30.23
2018-03-27T05:38:39.203Z,30.27
2018-03-27T05:41:06.805Z,23.27
2018-03-27T05:43:34.428Z,23.07
2018-03-27T05:46:02.090Z,22.33
2018-03-27T05:48:29.687Z,25.27
2018-03-27T05:50:57.736Z,30.17
2018-03-27T05:53:25.370Z,26.17
2018-03-27T05:55:53.055Z,28.67
2018-03-27T05:58:20.677Z,25.93
2018-03-27T06:00:48.388Z,25.20
2018-03-27T06:03:15.979Z,24.80
2018-03-27T06:05:43.751Z,30.17
2018-03-27T06:08:11.352Z,23.77
2018-03-27T06:10:38.954Z,26.43
2018-03-27T06:13:06.625Z,26.70
2018-03-27T06:15:34.322Z,27.67
2018-03-27T06:18:02.023Z,31.83
2018-03-27T06:20:29.625Z,22.20
2018-03-27T06:22:57.252Z,27.70
2018-03-27T06:25:24.853Z,24.27
2018-03-27T06:27:52.583Z,26.37
2018-03-27T06:30:20.175Z,29.30
2018-03-27T06:32:47.867Z,33.17
2018-03-27T06:35:15.474Z,25.70
2018-03-27T06:37:43.103Z,27.27
2018-03-27T06:40:10.708Z,29.27
2018-03-27T06:42:38.370Z,34.70
2018-03-27T06:45:05.971Z,26.27
2018-03-27T06:47:33.651Z,28.80
2018-03-27T06:50:01.214Z,31.07
2018-03-27T06:52:28.842Z,37.17
2018-03-27T06:54:56.481Z,35.57
2018-03-27T06:57:24.228Z,30.90
2018-03-27T06:59:51.836Z,33.60
2018-03-27T07:02:19.430Z,27.00
2018-03-27T07:04:47.074Z,32.50
2018-03-27T07:07:14.764Z,34.80
2018-03-27T07:09:42.407Z,35.80
2018-03-27T07:12:10.015Z,35.20
2018-03-27T07:14:37.642Z,32.60
2018-03-27T07:17:05.242Z,45.37
2018-03-27T07:19:32.911Z,33.87
2018-03-27T07:22:00.506Z,39.97
2018-03-27T07:24:28.133Z,33.13
2018-03-27T07:26:55.762Z,36.20
2018-03-27T07:29:23.367Z,31.77
2018-03-27T07:31:50.977Z,33.47
2018-03-27T07:34:18.655Z,34.33
2018-03-27T07:36:46.271Z,31.20
2018-03-27T07:39:13.906Z,32.53
2018-03-27T07:41:41.494Z,32.50
2018-03-27T07:44:09.151Z,34.97
2018-03-27T07:46:36.780Z,32.97
2018-03-27T07:49:06.155Z,32.00
2018-03-27T07:51:33.770Z,31.67
2018-03-27T07:54:01.358Z,25.33
2018-03-27T07:56:29.092Z,26.90
2018-03-27T07:58:56.691Z,29.93
2018-03-27T08:01:24.500Z,30.60
2018-03-27T08:03:52.171Z,28.07
2018-03-27T08:06:19.923Z,24.53
2018-03-27T08:08:47.555Z,27.70
2018-03-27T08:11:15.255Z,30.33
2018-03-27T08:13:42.870Z,28.20
2018-03-27T08:16:10.510Z,34.27
2018-03-27T08:18:38.125Z,34.07
2018-03-27T08:21:05.880Z,30.23
2018-03-27T08:23:33.493Z,27.57
2018-03-27T08:26:01.178Z,29.87
2018-03-27T08:28:28.800Z,30.40
2018-03-27T08:30:56.619Z,30.10
2018-03-27T08:33:24.224Z,27.70
2018-03-27T08:35:51.875Z,33.17
2018-03-27T08:38:19.486Z,29.30
2018-03-27T08:40:47.114Z,29.90
2018-03-27T08:43:14.768Z,26.90
2018-03-27T08:45:42.387Z,25.30
2018-03-27T08:48:10.051Z,29.13
2018-03-27T08:50:37.657Z,27.63
2018-03-27T08:53:05.322Z,27.77
2018-03-27T08:55:32.943Z,24.07
2018-03-27T08:58:00.672Z,24.73
2018-03-27T09:00:28.267Z,30.40
2018-03-27T09:02:55.911Z,23.33
2018-03-27T09:05:23.574Z,26.70
2018-03-27T09:07:51.203Z,25.67
2018-03-27T09:10:18.827Z,24.70
2018-03-27T09:12:46.599Z,23.93
2018-03-27T09:15:14.429Z,23.73
2018-03-27T09:17:42.012Z,25.47
2018-03-27T09:20:09.623Z,31.20
2018-03-27T09:22:37.294Z,23.60
2018-03-27T09:25:04.899Z,23.67
2018-03-27T09:27:32.724Z,27.30
2018-03-27T09:30:00.342Z,28.10
2018-03-27T09:32:28.031Z,19.90
2018-03-27T09:34:55.630Z,23.17
2018-03-27T09:37:23.264Z,22.30
2018-03-27T09:39:50.967Z,21.93
2018-03-27T09:42:18.575Z,20.67
2018-03-27T09:44:46.206Z,23.10
2018-03-27T09:47:13.850Z,15.60
2018-03-27T09:49:41.495Z,19.17
2018-03-27T09:52:09.098Z,19.40
2018-03-27T09:54:36.757Z,19.97
2018-03-27T09:57:04.368Z,13.63
2018-03-27T09:59:32.020Z,14.73
2018-03-27T10:01:59.604Z,13.10
2018-03-27T10:04:27.234Z,14.90
2018-03-27T10:06:54.855Z,26.53
2018-03-27T10:09:22.554Z,18.80
2018-03-27T10:11:50.166Z,19.33
2018-03-27T10:14:17.822Z,16.80
2018-03-27T10:16:45.430Z,15.50
2018-03-27T10:19:13.099Z,17.33
2018-03-27T10:21:40.720Z,13.50
2018-03-27T10:24:08.355Z,13.70
2018-03-27T10:26:35.961Z,15.10
2018-03-27T10:29:03.558Z,13.53
2018-03-27T10:31:31.220Z,11.03
2018-03-27T10:33:58.882Z,11.80
2018-03-27T10:36:26.552Z,9.10
2018-03-27T10:38:54.160Z,12.90
2018-03-27T10:41:21.816Z,13.37
2018-03-27T10:43:49.427Z,11.50
2018-03-27T10:46:17.169Z,8.67
2018-03-27T10:48:44.772Z,6.87
2018-03-27T10:51:12.656Z,8.00
2018-03-27T10:53:40.256Z,6.33
2018-03-27T10:56:07.906Z,6.83
2018-03-27T10:58:35.530Z,11.80
2018-03-27T11:01:03.173Z,8.87
2018-03-27T11:03:30.882Z,11.70
2018-03-27T11:05:58.527Z,7.23
2018-03-27T11:08:26.142Z,7.90
2018-03-27T11:10:53.788Z,9.57
2018-03-27T11:13:21.466Z,9.87
2018-03-27T11:15:49.147Z,10.60
2018-03-27T11:18:16.757Z,9.50
2018-03-27T11:20:44.390Z,9.53
2018-03-27T11:23:12.099Z,12.10
2018-03-27T11:25:39.728Z,13.03
2018-03-27T11:28:07.371Z,12.37
2018-03-27T11:30:34.969Z,16.70
2018-03-27T11:33:02.635Z,12.60
2018-03-27T11:35:30.258Z,19.90
2018-03-27T11:37:57.925Z,11.50
2018-03-27T11:40:25.544Z,10.47
2018-03-27T11:42:53.193Z,14.80
2018-03-27T11:45:20.825Z,12.80
2018-03-27T11:47:48.541Z,11.67
2018-03-27T11:50:16.200Z,17.50
2018-03-27T11:52:43.842Z,11.70
2018-03-27T11:55:11.473Z,11.40
2018-03-27T11:57:39.125Z,14.03
2018-03-27T12:00:06.915Z,9.77
2018-03-27T12:02:40.868Z,15.67
2018-03-27T12:05:10.811Z,12.70
2018-03-27T12:07:38.486Z,15.70
2018-03-27T12:10:06.133Z,11.77
2018-03-27T12:12:34.242Z,14.80
2018-03-27T12:15:01.871Z,14.40
2018-03-27T12:17:29.507Z,16.23
2018-03-27T12:19:57.275Z,14.30
2018-03-27T12:22:24.936Z,15.73
2018-03-27T12:24:52.598Z,14.17
2018-03-27T12:27:21.316Z,14.50
2018-03-27T12:29:49.100Z,13.23
2018-03-27T12:32:16.722Z,12.60
2018-03-27T12:34:44.366Z,18.50
2018-03-27T12:37:11.961Z,21.03
2018-03-27T12:39:39.622Z,13.00
2018-03-27T12:42:07.228Z,12.33
2018-03-27T12:44:34.874Z,20.50
2018-03-27T12:47:02.534Z,17.37
2018-03-27T12:49:30.202Z,18.40
2018-03-27T12:51:57.819Z,14.53
2018-03-27T12:54:25.496Z,17.13
2018-03-27T12:56:53.103Z,19.00
2018-03-27T12:59:20.833Z,17.10
2018-03-27T13:01:48.512Z,19.93
2018-03-27T13:04:16.164Z,17.63
2018-03-27T13:06:43.788Z,19.50
2018-03-27T13:09:11.391Z,15.13
2018-03-27T13:11:39.071Z,17.07
2018-03-27T13:14:06.727Z,16.87
2018-03-27T13:16:34.394Z,18.20
2018-03-27T13:19:02.005Z,19.60
2018-03-27T13:21:29.663Z,15.57
2018-03-27T13:23:57.315Z,18.47
2018-03-27T13:26:24.955Z,16.00
2018-03-27T13:28:52.562Z,15.80
2018-03-27T13:31:20.210Z,13.30
2018-03-27T13:33:47.834Z,15.33
2018-03-27T13:36:15.470Z,13.10
2018-03-27T13:38:43.079Z,14.67
2018-03-27T13:41:10.745Z,21.10
2018-03-27T13:43:38.387Z,13.47
2018-03-27T13:46:06.080Z,14.70
2018-03-27T13:48:33.683Z,13.20
2018-03-27T13:51:01.316Z,20.20
2018-03-27T13:53:28.917Z,16.33
2018-03-27T13:55:56.596Z,15.30
2018-03-27T13:58:24.252Z,17.93
2018-03-27T14:00:52.088Z,21.77
2018-03-27T14:03:19.701Z,21.00
2018-03-27T14:05:47.298Z,16.87
2018-03-27T14:08:15.134Z,21.33
2018-03-27T14:10:42.754Z,16.60
2018-03-27T14:13:10.426Z,19.70
2018-03-27T14:15:38.087Z,19.50
2018-03-27T14:18:07.450Z,16.23
2018-03-27T14:20:35.086Z,16.30
2018-03-27T14:23:02.852Z,14.90
2018-03-27T14:25:30.443Z,15.47
2018-03-27T14:27:58.108Z,16.27
2018-03-27T14:30:25.775Z,17.43
2018-03-27T14:32:53.408Z,18.17
2018-03-27T14:35:21.059Z,14.50
2018-03-27T14:37:48.706Z,19.33
2018-03-27T14:40:16.332Z,16.77
2018-03-27T14:42:43.980Z,18.73
2018-03-27T14:45:11.650Z,17.27
2018-03-27T14:47:39.306Z,19.20
2018-03-27T14:50:06.931Z,16.50
2018-03-27T14:52:34.651Z,17.43
2018-03-27T14:55:02.285Z,18.50
2018-03-27T14:57:29.930Z,15.80
2018-03-27T14:59:57.536Z,21.80
2018-03-27T15:02:25.150Z,14.40
2018-03-27T15:04:52.858Z,14.17
2018-03-27T15:07:20.454Z,15.73
2018-03-27T15:09:48.089Z,15.63
2018-03-27T15:12:15.692Z,18.20
2018-03-27T15:14:43.359Z,13.57
2018-03-27T15:17:11.008Z,14.83
2018-03-27T15:19:38.782Z,16.53
2018-03-27T15:22:06.382Z,19.33
2018-03-27T15:24:34.026Z,14.33
2018-03-27T15:27:01.671Z,12.77
2018-03-27T15:29:29.312Z,18.33
2018-03-27T15:31:57.009Z,15.03
2018-03-27T15:34:24.672Z,16.43
2018-03-27T15:36:52.297Z,18.67
2018-03-27T15:39:20.080Z,17.20
2018-03-27T15:41:47.678Z,20.50
2018-03-27T15:44:15.353Z,22.60
2018-03-27T15:46:42.965Z,22.60
2018-03-27T15:49:10.613Z,30.07
2018-03-27T15:51:38.209Z,21.47
2018-03-27T15:54:05.831Z,17.13
2018-03-27T15:56:33.490Z,21.90
2018-03-27T15:59:01.087Z,19.00
2018-03-27T16:01:28.758Z,19.63
2018-03-27T16:03:56.362Z,18.70
2018-03-27T16:06:24.003Z,14.40
2018-03-27T16:08:51.842Z,21.47
2018-03-27T16:11:19.513Z,18.30
2018-03-27T16:13:47.123Z,17.03
2018-03-27T16:16:14.931Z,15.60
2018-03-27T16:18:42.538Z,16.30
2018-03-27T16:21:10.158Z,17.00
2018-03-27T16:23:37.791Z,14.90
2018-03-27T16:26:05.557Z,17.40
2018-03-27T16:28:33.164Z,14.50
2018-03-27T16:31:00.883Z,17.07
2018-03-27T16:33:28.480Z,14.47
2018-03-27T16:35:56.131Z,13.70
2018-03-27T16:38:23.798Z,13.33
2018-03-27T16:40:51.459Z,11.53
2018-03-27T16:43:19.051Z,14.60
2018-03-27T16:45:46.666Z,14.93
2018-03-27T16:48:14.309Z,15.40
2018-03-27T16:50:41.944Z,18.27
2018-03-27T16:53:09.595Z,9.60
2018-03-27T16:55:37.229Z,10.70
2018-03-27T16:58:04.883Z,8.17
2018-03-27T17:00:32.532Z,7.43
2018-03-27T17:03:00.215Z,17.57
2018-03-27T17:05:27.812Z,10.93
2018-03-27T17:07:55.453Z,11.10
2018-03-27T17:10:23.141Z,10.03
2018-03-27T17:12:50.842Z,9.83
2018-03-27T17:15:18.452Z,9.00
2018-03-27T17:17:46.195Z,12.63
2018-03-27T17:20:13.789Z,9.13
2018-03-27T17:22:41.415Z,9.17
2018-03-27T17:25:09.171Z,12.97
2018-03-27T17:27:36.812Z,14.77
2018-03-27T17:30:04.438Z,10.43
2018-03-27T17:32:32.064Z,12.37
2018-03-27T17:34:59.681Z,12.03
2018-03-27T17:37:27.445Z,11.63
2018-03-27T17:39:55.055Z,16.53
2018-03-27T17:42:22.660Z,17.77
2018-03-27T17:44:50.305Z,29.27
2018-03-27T17:47:17.940Z,20.47
2018-03-27T17:49:45.575Z,22.40
2018-03-27T17:52:13.198Z,22.37
2018-03-27T17:54:40.835Z,25.47
2018-03-27T17:57:08.421Z,22.17
2018-03-27T17:59:36.102Z,20.13
2018-03-27T18:02:03.801Z,18.20
2018-03-27T18:04:31.431Z,16.37
2018-03-27T18:06:59.035Z,20.80
2018-03-27T18:09:26.866Z,18.57
2018-03-27T18:11:54.567Z,19.10
2018-03-27T18:14:22.255Z,20.47
2018-03-27T18:16:49.867Z,27.30
2018-03-27T18:19:17.630Z,33.77
2018-03-27T18:21:45.256Z,22.83
2018-03-27T18:24:12.915Z,21.60
2018-03-27T18:26:40.602Z,25.20
2018-03-27T18:29:08.287Z,27.23
2018-03-27T18:31:35.916Z,23.90
2018-03-27T18:34:03.513Z,25.37
2018-03-27T18:36:31.140Z,21.77
2018-03-27T18:38:58.767Z,26.40
2018-03-27T18:41:26.394Z,32.27
2018-03-27T18:43:54.002Z,29.77
2018-03-27T18:46:21.752Z,32.07
2018-03-27T18:48:49.384Z,30.10
2018-03-27T18:51:17.404Z,33.47
2018-03-27T18:53:45.023Z,31.83
2018-03-27T18:56:12.850Z,30.53
2018-03-27T18:58:40.467Z,27.40
2018-03-27T19:01:08.454Z,28.20
2018-03-27T19:03:36.069Z,29.23
2018-03-27T19:06:03.777Z,30.93
2018-03-27T19:08:31.357Z,28.60
2018-03-27T19:10:58.992Z,38.93
2018-03-27T19:13:26.596Z,29.97
2018-03-27T19:15:54.238Z,34.20
2018-03-27T19:18:21.842Z,29.83
2018-03-27T19:20:49.504Z,31.57
2018-03-27T19:23:17.177Z,40.00
2018-03-27T19:25:44.904Z,31.90
2018-03-27T19:28:12.514Z,32.50
2018-03-27T19:30:40.131Z,40.97
2018-03-27T19:33:07.757Z,35.07
2018-03-27T19:35:35.363Z,40.27
2018-03-27T19:38:03.108Z,43.20
2018-03-27T19:40:30.744Z,35.30
2018-03-27T19:42:58.373Z,34.80
2018-03-27T19:45:25.998Z,34.43
2018-03-27T19:47:53.653Z,36.23
2018-03-27T19:50:21.306Z,36.17
2018-03-27T19:52:48.975Z,41.10
2018-03-27T19:55:16.583Z,32.37
2018-03-27T19:57:44.244Z,42.53
2018-03-27T20:00:12.001Z,36.70
2018-03-27T20:02:39.647Z,37.50
2018-03-27T20:05:07.254Z,30.93
2018-03-27T20:07:34.899Z,34.20
2018-03-27T20:10:02.502Z,48.77
2018-03-27T20:12:30.132Z,39.17
2018-03-27T20:14:57.741Z,34.33
2018-03-27T20:17:25.431Z,29.80
2018-03-27T20:19:53.048Z,35.83
2018-03-27T20:22:20.650Z,43.37
2018-03-27T20:24:48.296Z,31.70
2018-03-27T20:27:15.872Z,35.17
2018-03-27T20:29:43.502Z,30.37
2018-03-27T20:32:11.113Z,26.73
2018-03-27T20:34:38.934Z,37.97
2018-03-27T20:37:06.559Z,33.30
2018-03-27T20:39:34.214Z,38.30
2018-03-27T20:42:01.804Z,34.90
2018-03-27T20:44:29.449Z,30.63
2018-03-27T20:46:57.174Z,39.57
2018-03-27T20:49:24.857Z,41.10
2018-03-27T20:51:52.471Z,33.00
2018-03-27T20:54:20.110Z,35.80
2018-03-27T20:56:47.726Z,36.17
2018-03-27T20:59:15.360Z,37.97
2018-03-27T21:01:43.066Z,35.60
2018-03-27T21:04:10.733Z,34.57
2018-03-27T21:06:38.346Z,35.67
2018-03-27T21:09:06.135Z,32.73
2018-03-27T21:11:33.844Z,35.67
2018-03-27T21:14:01.454Z,38.00
2018-03-27T21:16:29.094Z,40.03
2018-03-27T21:18:56.736Z,39.10
2018-03-27T21:21:24.418Z,45.87
2018-03-27T21:23:52.018Z,37.93
2018-03-27T21:26:19.646Z,38.73
2018-03-27T21:28:47.245Z,35.67
2018-03-27T21:31:14.915Z,30.07
2018-03-27T21:33:42.514Z,36.17
2018-03-27T21:36:10.214Z,33.63
2018-03-27T21:38:37.810Z,32.50
2018-03-27T21:41:05.430Z,34.27
2018-03-27T21:43:33.055Z,33.90
2018-03-27T21:46:00.736Z,32.83
2018-03-27T21:48:28.323Z,27.20
2018-03-27T21:50:56.039Z,30.33
2018-03-27T21:53:23.714Z,30.03
2018-03-27T21:55:51.354Z,33.63
2018-03-27T21:58:19.144Z,30.73
2018-03-27T22:00:46.775Z,28.07
2018-03-27T22:03:14.376Z,30.80
2018-03-27T22:05:42.014Z,29.53
2018-03-27T22:08:09.627Z,30.00
2018-03-27T22:10:37.333Z,37.00
2018-03-27T22:13:04.982Z,26.87
2018-03-27T22:15:32.598Z,30.53
2018-03-27T22:18:00.244Z,30.57
2018-03-27T22:20:27.871Z,33.13
2018-03-27T22:22:55.489Z,29.50
2018-03-27T22:25:23.101Z,29.50
2018-03-27T22:27:50.748Z,31.23
2018-03-27T22:30:18.351Z,32.53
2018-03-27T22:32:46.002Z,34.03
2018-03-27T22:35:13.590Z,34.10
2018-03-27T22:37:41.305Z,36.40
2018-03-27T22:40:08.889Z,29.63
2018-03-27T22:42:36.530Z,29.20
2018-03-27T22:45:04.127Z,29.60
2018-03-27T22:47:31.783Z,27.33
2018-03-27T22:49:59.369Z,31.07
2018-03-27T22:52:27.022Z,33.00
2018-03-27T22:54:54.624Z,30.00
2018-03-27T22:57:22.279Z,29.73
2018-03-27T22:59:49.874Z,28.33
2018-03-27T23:02:17.483Z,31.40
2018-03-27T23:04:45.156Z,29.53
2018-03-27T23:07:12.847Z,32.50
2018-03-27T23:09:40.480Z,30.03
2018-03-27T23:12:08.063Z,35.53
2018-03-27T23:14:35.708Z,29.23
2018-03-27T23:17:03.326Z,31.10
2018-03-27T23:19:30.944Z,34.53
2018-03-27T23:21:58.548Z,31.53
2018-03-27T23:24:26.202Z,29.23
2018-03-27T23:26:53.810Z,27.93
2018-03-27T23:29:21.470Z,27.67
2018-03-27T23:31:49.075Z,29.10
2018-03-27T23:34:16.717Z,30.60
2018-03-27T23:36:44.302Z,26.40
2018-03-27T23:39:11.938Z,27.77
2018-03-27T23:41:39.534Z,27.53
2018-03-27T23:44:07.202Z,26.83
2018-03-27T23:46:34.793Z,26.83
2018-03-27T23:49:02.430Z,29.87
2018-03-27T23:51:30.020Z,27.63
2018-03-27T23:53:57.659Z,27.87
2018-03-27T23:56:25.261Z,26.27
2018-03-27T23:58:52.935Z,30.80
